Tiff City, MO (64868)

12:29 PM CDT on July 26, 2016 (GMT -0500)
Grove Municipal | | Change Station

Elev 833 ft 36.60 °N, 94.74 °W | Updated 14 minutes ago

Mostly Cloudy
Mostly Cloudy
88 °F
Feels Like 100 °F
N
0
Wind Variable Wind from North

Today
High -- | Low -- °F
--% Chance of Precip.
Yesterday
High -- | Low -- °F
Precip. -- in
Pressure 30.02 in
Visibility 10.0 miles
Clouds Mostly Cloudy 2800 ft
Mostly Cloudy 3500 ft
Heat Index 100 °F
Dew Point 77 °F
Humidity 70%
Rainfall 0.00 in
Snow Depth Not available.
6:19 AM 8:29 PM
Waning Gibbous, 53% visible
METAR KGMJ 261715Z AUTO 00000KT 10SM BKN028 BKN035 31/25 A3002 RMK AO2
Pressure 30.02 in
Visibility 10.0 miles
Clouds Mostly Cloudy 2800 ft
Mostly Cloudy 3500 ft
Heat Index 100 °F
Dew Point 77 °F
Humidity 70%
Rainfall 0.00 in
Snow Depth Not available.
6:19 AM 8:29 PM
Waning Gibbous, 53% visible
METAR KGMJ 261715Z AUTO 00000KT 10SM BKN028 BKN035 31/25 A3002 RMK AO2

10-Day Weather Forecast

Almanac

Astronomy

Jul. 26, 2016 Rise Set
Actual Time
Civil Twilight
Nautical Twilight
Astronomical Twilight
Moon
Length of Visible Light
Length of Day
Tomorrow will be .
, % of the Moon is Illuminated

Today's Extremes

State Highs State Lows

Community

WunderPhotos

Upload Photos

1,927,640 photos uploaded!

WunderBlog® & News

Nearby

Air Quality

  Air Quality AQ Index Pollutant
Not available.

Snow Depth

Station Depth Elevation

Earthquake Activity

City Distance Mag. Time & Date
Minimum magnitude displayed is 2.5.

Coastal Water Temperatures

Place Temperature

Stations

Nearby Weather Stations

Station Location Temp. Windchill Dew Point Humidity Wind Precip. Elev Updated Type
                   

Watches & Warnings

There are currently no watches in effect.